Time;durP1;ratioP1;P1;durP2;ratioP2;P2;SDS_P1;SDS_P2;PMS_P1;PMS_P2;Temp;Humidity;BMP_temperature;BMP_pressure;BME280_temperature;BME280_humidity;BME280_pressure;Samples;Min_cycle;Max_cycle;Signal;HPM_P1;HPM_P2
2023/07/30 00:00:16;;;;;;;2.50;0.88;;;16.90;99.90;;;16.30;100.00;97509.91;5007024;28;20468;-76
2023/07/30 00:02:43;;;;;;;4.97;1.02;;;16.80;99.90;;;16.33;100.00;97508.84;5006533;28;20046;-76
2023/07/30 00:05:10;;;;;;;4.90;1.15;;;16.80;99.90;;;16.36;100.00;97511.28;5002959;28;20046;-75
2023/07/30 00:07:37;;;;;;;2.85;0.80;;;16.90;99.90;;;16.41;100.00;97517.06;5001842;28;20054;-76
2023/07/30 00:10:05;;;;;;;7.05;1.20;;;16.80;99.90;;;16.42;100.00;97516.09;5001236;28;20054;-76
2023/07/30 00:12:37;;;;;;;2.85;0.93;;;16.80;99.90;;;16.47;100.00;97514.88;5002708;28;20116;-77
2023/07/30 00:15:07;;;;;;;4.13;1.15;;;16.80;99.90;;;16.42;100.00;97503.88;4994184;28;20072;-76
2023/07/30 00:17:34;;;;;;;3.13;0.90;;;16.80;99.90;;;16.43;100.00;97502.06;5000947;28;20050;-76
2023/07/30 00:20:05;;;;;;;8.93;1.52;;;16.80;99.90;;;16.41;100.00;97507.41;5001865;28;20100;-75
2023/07/30 00:22:32;;;;;;;2.75;1.25;;;16.80;99.90;;;16.43;100.00;97509.94;5000019;28;20058;-76
2023/07/30 00:24:59;;;;;;;1.98;1.10;;;16.90;99.90;;;16.41;100.00;97515.25;5003310;28;20128;-76
2023/07/30 00:27:26;;;;;;;2.03;1.00;;;16.90;99.90;;;16.49;100.00;97520.00;5003122;28;20061;-75
2023/07/30 00:29:53;;;;;;;2.40;1.20;;;16.80;99.90;;;16.47;100.00;97514.03;5003408;28;20057;-76
2023/07/30 00:32:20;;;;;;;4.75;1.20;;;16.80;99.90;;;16.50;100.00;97522.50;4999099;28;20064;-76
2023/07/30 00:34:47;;;;;;;2.10;1.23;;;16.80;99.90;;;16.52;100.00;97527.66;5004023;28;20065;-76
2023/07/30 00:37:14;;;;;;;2.72;1.27;;;16.80;99.90;;;16.49;100.00;97514.78;4999402;28;20132;-76
2023/07/30 00:39:41;;;;;;;3.70;1.00;;;16.80;99.90;;;16.54;100.00;97510.06;5003424;28;20100;-76
2023/07/30 00:42:09;;;;;;;2.85;1.30;;;16.90;99.90;;;16.54;100.00;97499.56;4999094;28;20465;-76
2023/07/30 00:44:36;;;;;;;5.65;1.13;;;17.00;99.90;;;16.51;100.00;97502.38;5000107;28;20115;-77
2023/07/30 00:47:03;;;;;;;1.95;0.80;;;17.00;99.90;;;16.59;100.00;97502.72;5004899;28;20100;-76
2023/07/30 00:49:30;;;;;;;2.67;1.20;;;17.00;99.90;;;16.55;100.00;97496.00;5000289;28;20104;-76
2023/07/30 00:51:58;;;;;;;1.67;0.98;;;17.00;99.90;;;16.56;100.00;97502.94;5003129;28;20050;-76
2023/07/30 00:54:26;;;;;;;1.90;1.02;;;17.00;99.90;;;16.54;100.00;97499.56;5005797;28;20046;-76
2023/07/30 00:56:53;;;;;;;3.30;1.20;;;17.00;99.90;;;16.53;100.00;97492.63;5004235;28;20041;-76
2023/07/30 00:59:21;;;;;;;1.90;1.00;;;17.00;99.90;;;16.49;100.00;97486.78;5005277;28;20452;-75
2023/07/30 01:01:52;;;;;;;3.60;0.90;;;17.00;99.90;;;16.51;100.00;97494.50;5001942;28;20493;-76
2023/07/30 01:04:19;;;;;;;2.22;1.13;;;17.00;99.90;;;16.51;100.00;97498.00;5005682;28;20100;-76
2023/07/30 01:06:46;;;;;;;4.72;1.77;;;17.00;99.90;;;16.47;100.00;97508.78;5003890;28;20050;-77
2023/07/30 01:09:14;;;;;;;3.33;1.30;;;16.90;99.90;;;16.54;100.00;97515.28;5004566;28;20075;-76
2023/07/30 01:11:42;;;;;;;2.47;1.48;;;16.90;99.90;;;16.51;100.00;97516.34;5003583;28;20464;-77
2023/07/30 01:14:10;;;;;;;3.60;1.60;;;16.80;99.90;;;16.50;100.00;97522.50;5002208;28;20054;-76
2023/07/30 01:16:37;;;;;;;3.38;2.00;;;16.80;99.90;;;16.49;100.00;97518.22;5006381;28;20053;-77
2023/07/30 01:19:06;;;;;;;3.00;2.13;;;16.80;99.90;;;16.55;100.00;97511.72;5004902;28;20056;-75
2023/07/30 01:21:37;;;;;;;4.75;2.30;;;16.90;99.90;;;16.55;100.00;97529.22;5003516;28;20096;-75
2023/07/30 01:24:04;;;;;;;3.55;2.35;;;16.90;99.90;;;16.52;100.00;97517.16;5000635;28;20054;-76
2023/07/30 01:27:14;;;;;;;4.95;2.65;;;16.90;99.90;;;16.55;100.00;97524.81;5004310;28;20057;-76
2023/07/30 01:30:41;;;;;;;5.53;2.72;;;16.90;99.90;;;16.56;100.00;97520.41;4997110;28;20156;-75
2023/07/30 01:33:10;;;;;;;7.13;3.30;;;17.00;99.90;;;16.57;100.00;97522.09;5005596;28;20042;-77
2023/07/30 01:35:38;;;;;;;5.20;2.90;;;16.90;99.90;;;16.59;100.00;97525.47;5015915;28;20052;-76
2023/07/30 01:38:07;;;;;;;5.95;3.30;;;17.00;99.90;;;16.62;100.00;97538.34;4999525;28;20045;-76
2023/07/30 01:40:34;;;;;;;5.30;3.30;;;16.90;99.90;;;16.63;100.00;97546.09;5001027;28;20154;-77
2023/07/30 01:43:01;;;;;;;4.72;3.10;;;17.00;99.90;;;16.74;100.00;97540.16;5017957;28;20050;-76
2023/07/30 01:45:28;;;;;;;5.78;3.40;;;16.90;99.90;;;16.83;100.00;97541.31;5005169;28;20389;-76
2023/07/30 01:47:56;;;;;;;6.53;3.85;;;17.00;99.90;;;16.75;100.00;97536.56;5003870;28;20131;-76
2023/07/30 01:50:23;;;;;;;6.78;3.15;;;17.00;99.90;;;16.77;100.00;97537.31;4979597;28;20046;-75
2023/07/30 01:52:50;;;;;;;5.93;4.00;;;17.00;99.90;;;16.80;100.00;97534.50;5005942;28;20054;-76
2023/07/30 01:55:17;;;;;;;6.00;3.22;;;17.00;99.90;;;16.81;100.00;97532.72;5003453;28;20456;-76
2023/07/30 01:57:45;;;;;;;6.32;4.32;;;17.00;99.90;;;16.81;100.00;97537.94;5002246;28;20049;-76
2023/07/30 02:00:12;;;;;;;9.35;5.45;;;17.00;99.90;;;16.82;100.00;97547.50;5002843;28;20431;-77
2023/07/30 02:02:39;;;;;;;7.65;5.40;;;17.10;99.90;;;16.94;100.00;97551.91;5003833;28;20511;-76
2023/07/30 02:05:07;;;;;;;6.72;5.28;;;17.10;99.90;;;16.96;100.00;97536.91;5007114;28;20057;-76
2023/07/30 02:07:34;;;;;;;9.25;6.88;;;17.10;99.90;;;16.86;100.00;97525.38;5005332;28;20072;-76
2023/07/30 02:10:01;;;;;;;9.93;6.60;;;17.10;99.90;;;16.88;100.00;97526.13;5004061;28;20046;-76
2023/07/30 02:12:28;;;;;;;9.35;6.40;;;17.20;99.90;;;16.82;100.00;97524.75;5005392;28;20109;-76
2023/07/30 02:14:55;;;;;;;9.82;5.75;;;17.20;99.90;;;16.95;100.00;97529.16;5002185;28;20061;-75
2023/07/30 02:17:22;;;;;;;7.28;5.57;;;17.20;99.90;;;16.86;100.00;97528.00;5005134;28;20042;-76
2023/07/30 02:19:49;;;;;;;8.45;6.35;;;17.10;99.90;;;16.87;100.00;97532.28;5006504;28;20462;-76
2023/07/30 02:22:19;;;;;;;10.27;6.50;;;17.10;99.90;;;16.87;100.00;97529.66;5002212;28;20061;-76
2023/07/30 02:24:46;;;;;;;7.25;6.07;;;17.10;99.90;;;16.92;100.00;97524.94;5005651;28;20108;-76
2023/07/30 02:27:13;;;;;;;9.75;7.30;;;17.10;99.90;;;16.86;100.00;97523.59;5006682;28;20081;-75
2023/07/30 02:29:40;;;;;;;10.20;8.23;;;17.20;99.90;;;16.93;100.00;97535.34;5005579;28;20473;-75
2023/07/30 02:32:07;;;;;;;13.10;9.40;;;17.20;99.90;;;16.91;100.00;97536.38;5004271;28;20139;-76
2023/07/30 02:34:34;;;;;;;10.23;8.10;;;17.20;99.90;;;16.95;100.00;97537.88;5003311;28;20112;-76
2023/07/30 02:37:02;;;;;;;10.20;8.20;;;17.20;99.90;;;17.03;100.00;97538.16;5000732;28;20460;-76
2023/07/30 02:39:29;;;;;;;12.15;8.95;;;17.20;99.90;;;16.98;100.00;97540.25;5003580;28;20045;-76
2023/07/30 02:41:56;;;;;;;11.45;8.63;;;17.20;99.90;;;17.08;100.00;97543.94;5008180;28;20054;-76
2023/07/30 02:44:23;;;;;;;10.50;8.18;;;17.20;99.90;;;17.17;100.00;97542.44;5007604;28;20489;-76
2023/07/30 02:46:50;;;;;;;12.75;9.07;;;17.20;99.90;;;17.13;100.00;97541.00;5007094;28;20115;-76
2023/07/30 02:49:18;;;;;;;10.80;9.15;;;17.30;99.90;;;17.18;100.00;97549.38;5006979;28;20049;-75
2023/07/30 02:51:48;;;;;;;12.57;9.15;;;17.30;99.90;;;17.18;100.00;97546.75;5008973;28;20060;-76
2023/07/30 02:54:20;;;;;;;18.48;10.32;;;17.30;99.90;;;17.24;100.00;97545.47;5008407;28;20045;-75
2023/07/30 02:56:48;;;;;;;12.35;9.45;;;17.40;99.90;;;17.23;100.00;97541.19;5009588;28;20111;-75
2023/07/30 02:59:15;;;;;;;12.68;9.63;;;17.40;99.90;;;17.25;100.00;97537.50;5009127;28;20049;-76
2023/07/30 03:01:42;;;;;;;13.80;9.25;;;17.50;99.90;;;17.32;100.00;97541.38;5005747;28;20058;-76
2023/07/30 03:04:09;;;;;;;9.45;8.45;;;17.50;99.90;;;17.39;100.00;97539.16;5007910;28;20626;-75
2023/07/30 03:06:36;;;;;;;10.85;8.80;;;17.50;99.90;;;17.38;100.00;97529.63;5009684;28;20115;-76
2023/07/30 03:09:03;;;;;;;14.32;9.95;;;17.50;99.90;;;17.26;100.00;97533.91;5007523;28;20065;-76
2023/07/30 03:11:30;;;;;;;16.60;10.30;;;17.50;99.90;;;17.26;100.00;97520.81;5007981;28;21244;-75
2023/07/30 03:13:57;;;;;;;10.43;9.25;;;17.60;99.90;;;17.32;100.00;97536.13;5007743;28;20045;-75
2023/07/30 03:16:25;;;;;;;9.70;8.65;;;17.60;99.90;;;17.38;100.00;97537.50;5006390;28;20049;-76
2023/07/30 03:18:52;;;;;;;8.80;7.65;;;17.60;99.90;;;17.42;100.00;97533.66;5008195;28;20049;-75
2023/07/30 03:21:19;;;;;;;10.07;8.07;;;17.50;99.90;;;17.42;100.00;97533.66;5007967;28;20443;-76
2023/07/30 03:23:48;;;;;;;10.38;8.43;;;17.60;99.90;;;17.29;100.00;97532.88;5008061;28;20053;-76
2023/07/30 03:26:15;;;;;;;9.30;7.72;;;17.70;99.90;;;17.28;100.00;97534.66;5001835;28;20488;-76
2023/07/30 03:28:42;;;;;;;14.00;8.50;;;17.60;99.90;;;17.26;100.00;97526.06;5006998;28;20075;-76
2023/07/30 03:31:09;;;;;;;8.77;6.32;;;17.60;99.90;;;17.31;100.00;97526.59;5006879;28;20165;-77
2023/07/30 03:33:39;;;;;;;10.20;7.13;;;17.60;99.90;;;17.25;100.00;97534.03;5003815;28;20042;-75
2023/07/30 03:36:06;;;;;;;7.07;5.95;;;17.60;99.90;;;17.35;100.00;97529.81;5005890;28;20066;-74
2023/07/30 03:38:33;;;;;;;8.75;7.25;;;17.60;99.90;;;17.32;100.00;97532.66;5010247;28;20061;-76
2023/07/30 03:41:00;;;;;;;12.20;7.13;;;17.50;99.90;;;17.31;100.00;97537.06;5005096;28;20038;-77
2023/07/30 03:43:27;;;;;;;8.68;6.45;;;17.60;99.90;;;17.32;100.00;97543.16;5007713;28;20050;-76
2023/07/30 03:45:54;;;;;;;7.20;6.20;;;17.50;99.90;;;17.37;100.00;97542.84;5005411;28;20085;-75
2023/07/30 03:48:21;;;;;;;9.23;6.18;;;17.60;99.90;;;17.30;100.00;97537.19;5007227;28;20693;-77
2023/07/30 03:50:48;;;;;;;9.95;6.63;;;17.50;99.90;;;17.25;100.00;97536.66;5007451;28;20138;-76
2023/07/30 03:53:15;;;;;;;6.78;5.32;;;17.50;99.90;;;17.30;100.00;97539.81;5005357;28;20124;-77
2023/07/30 03:55:42;;;;;;;6.95;6.20;;;17.50;99.90;;;17.22;100.00;97537.72;5007743;28;20050;-74
2023/07/30 03:58:09;;;;;;;7.75;6.47;;;17.50;99.90;;;17.23;100.00;97542.00;5007632;28;20049;-76
2023/07/30 04:00:37;;;;;;;8.93;6.88;;;17.60;99.90;;;17.18;100.00;97543.28;5009011;28;20123;-77
2023/07/30 04:03:04;;;;;;;7.93;6.32;;;17.50;99.90;;;17.17;100.00;97538.97;5006528;28;20058;-77
2023/07/30 04:05:31;;;;;;;9.65;6.70;;;17.60;99.90;;;17.16;100.00;97537.31;5007194;28;20053;-77
2023/07/30 04:07:58;;;;;;;8.25;6.80;;;17.60;99.90;;;17.17;100.00;97542.44;5005443;28;20046;-76
2023/07/30 04:10:25;;;;;;;8.77;6.15;;;17.60;99.90;;;17.15;100.00;97544.31;5008499;28;20050;-76
2023/07/30 04:12:52;;;;;;;8.93;7.18;;;17.50;99.90;;;16.98;100.00;97550.75;5005094;28;20476;-77
2023/07/30 04:15:19;;;;;;;9.35;6.93;;;17.50;99.90;;;16.98;100.00;97552.53;5004982;28;20069;-76
2023/07/30 04:17:46;;;;;;;11.80;6.90;;;17.50;99.90;;;16.98;100.00;97560.41;5006403;28;20073;-76
2023/07/30 04:20:13;;;;;;;8.38;6.05;;;17.40;99.90;;;16.97;100.00;97554.34;5005976;28;20512;-76
2023/07/30 04:22:41;;;;;;;8.80;5.80;;;17.40;99.90;;;17.00;100.00;97559.34;5006323;28;20115;-76
2023/07/30 04:25:10;;;;;;;9.30;6.70;;;17.40;99.90;;;16.97;100.00;97542.97;5003303;28;20765;-76
2023/07/30 04:27:39;;;;;;;12.85;6.97;;;17.40;99.90;;;16.97;100.00;97554.34;5005559;28;20165;-77
2023/07/30 04:30:07;;;;;;;7.43;5.78;;;17.40;99.90;;;17.00;100.00;97550.66;5006493;28;20115;-76
2023/07/30 04:32:34;;;;;;;6.22;5.10;;;17.40;99.90;;;17.02;100.00;97552.22;5002610;28;20050;-76
2023/07/30 04:35:03;;;;;;;8.50;5.65;;;17.40;99.90;;;17.00;100.00;97548.88;5007784;28;20140;-77
2023/07/30 04:37:30;;;;;;;11.25;6.30;;;17.40;99.90;;;16.96;100.00;97550.00;4988381;28;20200;-76
2023/07/30 04:39:57;;;;;;;9.93;5.95;;;17.40;99.90;;;17.04;100.00;97549.50;5000973;28;20297;-76
2023/07/30 04:42:24;;;;;;;9.98;6.30;;;17.40;99.90;;;17.07;100.00;97552.72;5005533;28;20069;-76
2023/07/30 04:44:51;;;;;;;8.32;5.80;;;17.40;99.90;;;17.18;100.00;97554.63;5006735;28;20060;-76
2023/07/30 04:47:18;;;;;;;9.60;5.75;;;17.50;99.90;;;17.10;100.00;97555.13;5005030;28;20053;-77
2023/07/30 04:49:45;;;;;;;6.53;4.90;;;17.50;99.90;;;17.14;100.00;97556.59;5005598;28;20080;-77
2023/07/30 04:52:12;;;;;;;4.63;3.92;;;17.50;99.90;;;17.14;100.00;97550.53;4986672;28;20564;-77
2023/07/30 04:54:39;;;;;;;8.80;4.43;;;17.50;99.90;;;17.13;100.00;97548.88;5005184;28;20053;-74
2023/07/30 04:57:06;;;;;;;8.40;4.22;;;17.50;99.90;;;17.12;100.00;97542.75;5006200;28;20054;-76
2023/07/30 04:59:33;;;;;;;6.10;3.95;;;17.50;99.90;;;17.20;100.00;97546.66;5002068;28;20227;-76
2023/07/30 05:02:01;;;;;;;9.45;4.68;;;17.60;99.90;;;17.23;100.00;97544.63;5005673;28;20049;-76
2023/07/30 05:04:28;;;;;;;5.80;4.38;;;17.60;99.90;;;17.27;100.00;97542.66;5001598;28;20129;-76
2023/07/30 05:06:55;;;;;;;6.35;5.47;;;17.60;99.90;;;17.29;100.00;97546.84;5007680;28;20061;-76
2023/07/30 05:09:22;;;;;;;7.80;5.90;;;17.60;99.90;;;17.44;100.00;97552.78;5004285;28;20050;-76
2023/07/30 05:11:49;;;;;;;10.88;5.88;;;17.60;99.90;;;17.40;100.00;97551.31;5004876;28;20054;-76
2023/07/30 05:14:16;;;;;;;7.13;5.65;;;17.70;99.90;;;17.55;100.00;97544.97;5005412;28;20053;-76
2023/07/30 05:16:44;;;;;;;9.27;5.65;;;17.80;99.90;;;17.66;100.00;97548.63;5005658;28;20108;-75
2023/07/30 05:19:11;;;;;;;9.60;6.45;;;17.80;99.90;;;17.64;100.00;97553.16;5005025;28;20108;-76
2023/07/30 05:21:39;;;;;;;6.80;5.55;;;17.90;99.90;;;17.81;100.00;97542.28;5003851;28;20431;-76
2023/07/30 05:24:07;;;;;;;7.07;5.00;;;18.00;99.90;;;18.12;100.00;97551.41;5001720;28;20169;-76
2023/07/30 05:26:34;;;;;;;8.43;6.35;;;18.10;99.90;;;17.88;100.00;97543.53;4996929;28;20046;-76
2023/07/30 05:29:03;;;;;;;7.00;6.25;;;18.00;99.90;;;17.90;100.00;97540.78;5003882;28;20404;-76
2023/07/30 05:31:30;;;;;;;9.07;7.65;;;18.00;99.90;;;17.79;100.00;97533.69;5004574;28;20555;-76
2023/07/30 05:33:57;;;;;;;10.30;7.95;;;18.00;99.90;;;17.68;100.00;97533.63;5006871;28;20054;-74
2023/07/30 05:36:24;;;;;;;10.18;8.25;;;18.10;99.90;;;17.66;100.00;97525.00;5004828;28;20444;-76
2023/07/30 05:38:51;;;;;;;7.57;6.32;;;18.10;99.90;;;17.88;100.00;97540.06;5003492;28;20100;-76
2023/07/30 05:41:18;;;;;;;7.45;6.63;;;18.00;99.90;;;17.68;100.00;97537.06;5002863;28;20043;-76
2023/07/30 05:43:45;;;;;;;10.30;7.78;;;18.00;99.90;;;17.60;100.00;97543.81;5004562;28;20112;-76
2023/07/30 05:46:12;;;;;;;8.05;4.90;;;18.00;99.90;;;17.66;100.00;97556.50;4998593;28;20053;-76
2023/07/30 05:48:39;;;;;;;7.80;5.05;;;17.90;99.90;;;17.76;100.00;97555.72;5008110;28;20066;-76
2023/07/30 05:51:06;;;;;;;7.75;4.57;;;17.90;99.90;;;17.77;100.00;97549.53;5004724;28;20053;-76
2023/07/30 05:53:34;;;;;;;7.85;4.05;;;18.00;99.90;;;17.83;100.00;97532.50;5007110;28;20105;-76
2023/07/30 05:56:01;;;;;;;4.30;3.22;;;18.00;99.90;;;17.98;100.00;97528.78;5006592;28;20501;-77
2023/07/30 05:58:28;;;;;;;6.10;3.58;;;18.10;99.90;;;17.87;100.00;97533.97;5007420;28;20045;-76
2023/07/30 06:00:55;;;;;;;5.15;3.28;;;18.10;99.90;;;17.87;100.00;97538.41;5005517;28;20058;-75
2023/07/30 06:03:22;;;;;;;8.35;3.88;;;18.00;99.90;;;17.95;100.00;97533.44;5008683;28;20435;-76
2023/07/30 06:05:49;;;;;;;5.20;3.17;;;18.10;99.90;;;17.87;100.00;97538.41;5007196;28;20297;-77
2023/07/30 06:08:16;;;;;;;5.68;3.22;;;18.10;99.90;;;17.95;100.00;97543.94;5006489;28;20096;-76
2023/07/30 06:10:43;;;;;;;4.32;3.05;;;18.20;99.90;;;18.06;100.00;97537.88;5008302;28;20112;-76
2023/07/30 06:13:10;;;;;;;8.50;3.13;;;18.30;99.90;;;18.25;100.00;97545.25;5002527;28;20092;-77
2023/07/30 06:15:37;;;;;;;3.95;2.63;;;18.30;99.90;;;18.42;100.00;97554.50;5007484;28;20042;-77
2023/07/30 06:18:05;;;;;;;4.22;2.60;;;18.30;99.90;;;18.24;100.00;97541.75;5007422;28;20050;-77
2023/07/30 06:20:32;;;;;;;3.38;1.85;;;18.30;99.90;;;18.16;100.00;97550.22;5007636;28;20046;-77
2023/07/30 06:22:59;;;;;;;6.43;2.58;;;18.30;99.90;;;18.25;100.00;97537.38;5005317;28;20100;-77
2023/07/30 06:25:26;;;;;;;3.80;1.88;;;18.30;99.90;;;18.12;100.00;97527.75;5004959;28;20603;-76
2023/07/30 06:27:54;;;;;;;4.55;2.13;;;18.40;99.90;;;18.16;100.00;97539.72;5004277;28;20054;-76
2023/07/30 06:30:21;;;;;;;4.82;2.00;;;18.40;99.90;;;18.12;100.00;97532.19;5003401;28;20046;-77
2023/07/30 06:32:48;;;;;;;3.15;1.63;;;18.40;99.90;;;18.28;100.00;97529.25;5006895;28;20054;-76
2023/07/30 06:35:15;;;;;;;3.83;2.10;;;18.30;99.90;;;18.09;100.00;97533.25;5004856;28;20401;-76
2023/07/30 06:37:42;;;;;;;3.00;1.98;;;18.30;99.90;;;18.07;100.00;97535.16;5000532;28;20046;-75
2023/07/30 06:40:09;;;;;;;4.78;1.52;;;18.20;99.90;;;18.25;100.00;97516.34;4996692;28;20045;-76
2023/07/30 06:42:36;;;;;;;4.00;1.75;;;18.30;99.90;;;18.17;100.00;97517.75;5004119;28;20769;-75
2023/07/30 06:45:04;;;;;;;5.40;1.70;;;18.20;99.90;;;18.27;100.00;97509.16;5004105;28;20085;-76
2023/07/30 06:47:31;;;;;;;2.45;1.52;;;18.20;99.90;;;18.26;100.00;97499.63;5004100;28;20497;-77
2023/07/30 06:50:03;;;;;;;6.32;1.50;;;18.20;99.90;;;18.21;100.00;97484.22;5007027;28;20061;-76
2023/07/30 06:52:31;;;;;;;4.32;1.88;;;18.40;99.90;;;18.43;100.00;97480.81;5000274;28;20054;-76
2023/07/30 06:54:58;;;;;;;3.85;1.65;;;18.30;99.90;;;18.41;100.00;97472.19;5006364;28;20311;-75
2023/07/30 06:57:25;;;;;;;2.75;1.45;;;18.50;99.90;;;18.56;100.00;97473.63;5006452;28;20101;-75
2023/07/30 06:59:52;;;;;;;6.82;1.33;;;18.70;99.90;;;18.64;100.00;97466.97;5005018;28;20081;-76
2023/07/30 07:02:19;;;;;;;3.42;1.77;;;18.80;99.90;;;18.61;100.00;97460.16;5003537;28;20046;-76
2023/07/30 07:04:46;;;;;;;9.40;1.85;;;18.80;99.90;;;18.65;100.00;97452.88;4999377;28;20046;-75
2023/07/30 07:07:13;;;;;;;2.83;1.20;;;18.80;99.90;;;18.71;100.00;97449.75;5006794;28;20047;-76
2023/07/30 07:09:40;;;;;;;5.50;1.73;;;18.80;99.90;;;18.53;100.00;97446.75;5002991;28;20112;-75
2023/07/30 07:12:08;;;;;;;5.53;1.20;;;18.80;99.90;;;18.80;100.00;97459.59;5004047;28;20468;-77
2023/07/30 07:14:35;;;;;;;10.05;1.50;;;18.80;99.90;;;18.93;100.00;97441.03;5005493;28;20057;-76
2023/07/30 07:17:02;;;;;;;3.58;1.52;;;18.90;99.90;;;18.74;100.00;97439.00;5006621;28;20062;-76
2023/07/30 07:19:30;;;;;;;2.85;1.52;;;19.20;99.90;;;18.70;100.00;97446.31;5006284;28;20042;-76
2023/07/30 07:21:57;;;;;;;4.28;1.20;;;19.00;99.90;;;18.80;100.00;97444.66;5002079;28;20046;-76
2023/07/30 07:24:24;;;;;;;2.97;1.60;;;19.00;99.90;;;18.90;100.00;97436.88;5004522;28;20050;-76
2023/07/30 07:26:51;;;;;;;4.38;1.60;;;19.00;99.90;;;18.63;100.00;97450.34;5007718;28;20062;-76
2023/07/30 07:29:18;;;;;;;6.75;1.90;;;18.90;99.90;;;18.69;100.00;97420.97;5004539;28;20049;-76
2023/07/30 07:31:46;;;;;;;8.45;1.83;;;18.80;99.90;;;18.33;100.00;97433.34;5005657;28;20119;-75
2023/07/30 07:34:13;;;;;;;4.45;1.88;;;18.70;99.90;;;18.23;100.00;97448.16;5008095;28;20109;-76
2023/07/30 07:36:40;;;;;;;5.97;1.60;;;18.80;99.90;;;18.33;100.00;97450.91;5007113;28;20438;-75
2023/07/30 07:39:07;;;;;;;4.47;1.55;;;18.80;99.90;;;18.22;100.00;97458.75;5007057;28;20053;-76
2023/07/30 07:41:34;;;;;;;3.90;1.60;;;18.70;99.90;;;18.31;100.00;97448.38;5007383;28;20050;-76
2023/07/30 07:44:01;;;;;;;3.33;1.45;;;18.60;99.90;;;18.64;100.00;97445.94;5007973;28;20061;-75
2023/07/30 07:46:29;;;;;;;2.35;1.40;;;18.90;99.90;;;19.25;100.00;97448.19;5007006;28;20111;-76
2023/07/30 07:48:56;;;;;;;3.33;1.42;;;19.00;99.90;;;19.29;100.00;97423.31;4998421;28;20069;-75
2023/07/30 07:51:23;;;;;;;4.22;1.40;;;19.30;99.90;;;19.27;100.00;97428.69;5007691;28;20104;-77
2023/07/30 07:53:50;;;;;;;5.55;1.50;;;19.50;99.90;;;19.21;100.00;97413.41;5007814;28;20050;-74
2023/07/30 07:56:17;;;;;;;4.47;1.70;;;19.40;99.90;;;19.11;100.00;97415.94;5009855;28;20038;-76
2023/07/30 07:58:47;;;;;;;2.67;1.00;;;19.60;99.90;;;19.64;100.00;97417.81;5006438;28;20042;-76
2023/07/30 08:01:14;;;;;;;2.30;1.50;;;19.50;99.90;;;19.20;100.00;97412.56;5006333;28;20125;-75
2023/07/30 08:03:42;;;;;;;5.35;1.50;;;19.50;99.90;;;19.26;100.00;97418.28;5009511;28;20592;-77
2023/07/30 08:06:09;;;;;;;4.07;1.33;;;19.40;99.90;;;19.52;100.00;97401.19;5009335;28;20053;-75
2023/07/30 08:08:36;;;;;;;3.63;1.30;;;19.50;99.90;;;19.77;100.00;97412.38;5010278;28;20442;-76
2023/07/30 08:11:09;;;;;;;4.85;1.30;;;19.70;99.90;;;19.78;100.00;97406.19;5009843;28;20486;-76
2023/07/30 08:13:36;;;;;;;9.57;1.35;;;19.80;99.90;;;19.78;100.00;97419.34;5007110;28;20104;-77
2023/07/30 08:16:03;;;;;;;6.72;1.58;;;19.70;99.90;;;19.61;100.00;97410.16;5008074;28;20437;-77
2023/07/30 08:18:31;;;;;;;2.53;1.08;;;19.70;99.90;;;20.32;100.00;97444.69;5008470;28;20488;-78
2023/07/30 08:21:00;;;;;;;3.85;1.60;;;20.00;99.90;;;19.69;100.00;97414.84;5007712;28;20053;-77
2023/07/30 08:23:28;;;;;;;2.17;1.00;;;19.80;99.90;;;19.75;100.00;97412.53;5000365;28;20049;-77
2023/07/30 08:25:55;;;;;;;2.30;1.00;;;19.80;99.90;;;19.74;100.00;97424.00;5000797;28;20046;-77
2023/07/30 08:28:22;;;;;;;3.47;1.05;;;19.80;99.90;;;19.20;100.00;97412.56;5004538;28;20077;-76
2023/07/30 08:30:49;;;;;;;4.18;0.90;;;19.60;99.90;;;19.31;100.00;97427.47;5005809;28;20089;-77
2023/07/30 08:33:16;;;;;;;2.25;0.95;;;19.50;99.90;;;19.33;100.00;97430.00;5006654;28;20473;-78
2023/07/30 08:35:43;;;;;;;4.88;1.10;;;19.30;99.90;;;19.37;100.00;97434.06;5004238;28;20050;-77
2023/07/30 08:38:10;;;;;;;4.07;1.33;;;19.50;99.90;;;18.96;100.00;97441.66;5006109;28;20050;-77
2023/07/30 08:40:37;;;;;;;6.35;0.90;;;19.30;99.90;;;19.18;100.00;97453.97;5005012;28;20587;-77
2023/07/30 08:43:04;;;;;;;2.22;1.10;;;19.10;99.90;;;18.66;100.00;97462.44;5008946;28;20061;-77
2023/07/30 08:45:32;;;;;;;2.97;1.20;;;19.00;99.90;;;19.05;100.00;97452.41;5008156;28;20157;-76
2023/07/30 08:47:59;;;;;;;2.88;1.10;;;19.00;99.90;;;19.05;100.00;97466.41;5006151;28;20296;-77
2023/07/30 08:50:27;;;;;;;2.45;1.25;;;19.10;99.90;;;18.89;100.00;97468.56;5003300;28;20074;-77
2023/07/30 08:52:55;;;;;;;6.05;1.00;;;18.90;99.90;;;18.66;100.00;97479.03;5008756;28;20428;-75
2023/07/30 08:55:24;;;;;;;3.50;0.90;;;18.80;99.90;;;18.82;100.00;97478.72;5003720;28;20481;-76
2023/07/30 08:57:52;;;;;;;2.85;0.95;;;18.90;99.90;;;18.74;100.00;97478.44;5002861;28;20131;-76
2023/07/30 09:00:20;;;;;;;1.17;0.60;;;18.90;99.90;;;19.25;100.00;97482.38;5007287;28;20078;-76
2023/07/30 09:02:53;;;;;;;2.55;0.80;;;19.00;99.90;;;19.70;100.00;97462.09;5000611;28;20462;-75
2023/07/30 09:05:21;;;;;;;2.92;0.70;;;19.40;99.90;;;19.99;100.00;97469.41;5004197;28;20049;-75
2023/07/30 09:07:49;;;;;;;2.03;0.60;;;19.90;99.90;;;19.70;100.00;97464.72;5004269;28;20050;-75
2023/07/30 09:10:17;;;;;;;1.35;0.65;;;20.10;99.90;;;19.85;100.00;97484.53;4998577;28;20046;-76
2023/07/30 09:12:44;;;;;;;1.77;0.60;;;19.70;99.90;;;20.19;100.00;97465.94;5002821;28;20054;-75
2023/07/30 09:15:17;;;;;;;2.80;0.60;;;20.10;99.90;;;20.18;100.00;97474.81;5006013;28;20049;-75
2023/07/30 09:17:45;;;;;;;1.83;0.70;;;20.40;99.90;;;19.71;100.00;97471.69;5004518;28;20416;-75
2023/07/30 09:20:12;;;;;;;2.03;0.60;;;20.20;99.90;;;19.13;100.00;97492.94;5006559;28;20053;-75
2023/07/30 09:22:40;;;;;;;2.17;0.60;;;19.80;99.90;;;18.91;100.00;97490.31;5006034;28;20542;-75
2023/07/30 09:25:08;;;;;;;4.03;0.80;;;19.30;99.90;;;19.38;100.00;97490.97;5002452;28;20054;-75
2023/07/30 09:27:36;;;;;;;1.90;0.63;;;19.50;99.90;;;20.09;100.00;97494.03;5004599;28;20115;-76
2023/07/30 09:30:05;;;;;;;1.88;0.70;;;19.90;99.90;;;19.93;100.00;97491.81;5004039;28;20509;-75
2023/07/30 09:32:34;;;;;;;1.05;0.40;;;20.00;99.90;;;20.97;100.00;97498.06;5003492;28;20500;-76
2023/07/30 09:35:11;;;;;;;2.17;0.60;;;20.60;99.90;;;20.64;100.00;97496.50;5006335;28;20210;-75
2023/07/30 09:37:41;;;;;;;2.08;0.80;;;20.80;99.90;;;20.89;100.00;97501.38;4997695;28;20049;-76
2023/07/30 09:40:14;;;;;;;2.95;0.40;;;20.80;99.90;;;21.25;100.00;97488.56;4998618;28;20073;-76
2023/07/30 09:42:48;;;;;;;1.92;0.80;;;21.00;99.90;;;21.20;100.00;97496.06;5018637;28;20070;-77
2023/07/30 09:45:24;;;;;;;3.35;0.80;;;21.30;99.90;;;21.78;100.00;97484.84;5004782;28;20052;-77
2023/07/30 09:47:56;;;;;;;2.63;0.60;;;21.20;99.90;;;21.38;100.00;97506.81;5003232;28;20495;-77
2023/07/30 09:50:23;;;;;;;2.88;0.75;;;21.20;99.90;;;20.83;100.00;97506.34;5003950;28;20061;-77
2023/07/30 09:52:51;;;;;;;5.13;0.75;;;21.10;99.90;;;21.22;100.00;97502.03;5006400;28;20111;-75
2023/07/30 09:55:20;;;;;;;4.13;0.55;;;21.30;99.90;;;20.68;100.00;97527.75;5018930;28;20054;-76
2023/07/30 09:57:48;;;;;;;2.67;0.70;;;21.30;99.90;;;20.16;100.00;97499.63;5005367;28;20133;-75
2023/07/30 10:00:15;;;;;;;2.80;0.70;;;21.20;99.90;;;21.23;100.00;97495.81;4997812;28;20107;-75
2023/07/30 10:02:47;;;;;;;5.28;0.68;;;21.60;99.90;;;21.21;100.00;97499.53;5000441;28;20045;-75
2023/07/30 10:05:23;;;;;;;;;;;21.90;99.90;;;21.79;100.00;97507.63;5006036;28;20050;-75
2023/07/30 10:08:22;;;;;;;3.50;0.73;;;22.40;99.90;;;23.17;100.00;97507.31;5001526;28;19971;-75
2023/07/30 10:10:50;;;;;;;4.03;0.85;;;23.30;99.90;;;23.16;100.00;97521.53;4999173;28;20053;-76
2023/07/30 10:13:19;;;;;;;7.05;0.75;;;22.70;99.90;;;22.53;100.00;97532.69;5005152;28;20095;-75
2023/07/30 10:15:47;;;;;;;5.82;0.93;;;22.20;99.90;;;21.23;100.00;97530.13;5001047;28;20045;-76